createdAt,value
2022-10-17T00:01:40.531Z,10.47
2022-10-17T00:08:58.149Z,10.66
2022-10-17T00:12:24.565Z,10.72
2022-10-17T00:19:44.352Z,10.82
2022-10-17T00:23:10.766Z,10.85
2022-10-17T00:26:43.238Z,10.84
2022-10-17T00:30:09.656Z,10.85
2022-10-17T00:37:28.861Z,10.90
2022-10-17T00:44:35.597Z,10.96
2022-10-17T00:48:02.037Z,11.01
2022-10-17T00:55:20.952Z,11.08
2022-10-17T00:58:47.536Z,11.09
2022-10-17T01:05:56.533Z,11.09
2022-10-17T01:09:11.187Z,11.11
2022-10-17T01:49:48.086Z,11.28
2022-10-17T01:52:24.799Z,11.31
2022-10-17T01:54:59.973Z,11.33
2022-10-17T01:57:35.977Z,11.33
2022-10-17T02:00:06.918Z,11.33
2022-10-17T02:02:34.152Z,11.38
2022-10-17T02:05:02.882Z,11.39
2022-10-17T02:12:21.863Z,11.36
2022-10-17T02:15:14.180Z,11.41
2022-10-17T02:18:26.821Z,11.44
2022-10-17T02:21:59.368Z,11.41
2022-10-17T02:25:06.145Z,11.43
2022-10-17T02:28:12.786Z,11.39
2022-10-17T02:35:36.467Z,11.44
2022-10-17T02:39:02.886Z,11.37
2022-10-17T02:46:22.355Z,11.33
2022-10-17T02:49:48.792Z,11.32
2022-10-17T02:53:15.460Z,11.38
2022-10-17T02:55:49.525Z,11.45
2022-10-17T02:59:19.354Z,11.45
2022-10-17T03:06:29.806Z,11.53
2022-10-17T03:09:56.227Z,11.53
2022-10-17T03:13:22.764Z,11.53
2022-10-17T03:16:49.201Z,11.51
2022-10-17T03:20:15.861Z,11.44
2022-10-17T03:23:42.292Z,11.37
2022-10-17T03:30:19.773Z,11.37
2022-10-17T03:33:46.333Z,11.33
2022-10-17T03:41:06.958Z,11.37
2022-10-17T03:44:33.410Z,11.31
2022-10-17T06:04:45.684Z,10.97
2022-10-17T06:07:20.713Z,10.94
2022-10-17T06:09:47.881Z,10.94
2022-10-17T06:12:14.688Z,10.90
2022-10-17T06:14:41.288Z,10.92
2022-10-17T06:17:12.094Z,10.95
2022-10-17T06:19:41.609Z,10.92
2022-10-17T06:22:08.778Z,10.90
2022-10-17T06:24:35.559Z,10.92
2022-10-17T06:27:02.344Z,10.90
2022-10-17T06:29:29.203Z,10.90
2022-10-17T06:31:56.006Z,10.92
2022-10-17T06:34:23.051Z,10.92
2022-10-17T06:36:50.057Z,10.90
2022-10-17T06:39:16.972Z,10.89
2022-10-17T06:41:44.665Z,10.90
2022-10-17T06:44:12.225Z,10.91
2022-10-17T06:46:40.111Z,10.93
2022-10-17T06:49:07.650Z,10.91
2022-10-17T06:51:37.945Z,10.89
2022-10-17T06:54:05.073Z,10.89
2022-10-17T06:56:31.822Z,10.92
2022-10-17T06:58:58.727Z,10.91
2022-10-17T07:01:25.923Z,10.87
2022-10-17T07:03:52.674Z,10.84
2022-10-17T07:06:19.529Z,10.82
2022-10-17T07:08:46.732Z,10.86
2022-10-17T07:11:15.785Z,10.88
2022-10-17T07:13:43.144Z,10.91
2022-10-17T07:16:11.294Z,10.86
2022-10-17T07:18:38.818Z,10.87
2022-10-17T07:21:06.103Z,10.91
2022-10-17T07:23:36.702Z,10.94
2022-10-17T07:26:08.650Z,10.94
2022-10-17T07:28:39.826Z,10.96
2022-10-17T07:31:08.565Z,11.01
2022-10-17T07:33:35.335Z,11.03
2022-10-17T07:36:03.036Z,11.04
2022-10-17T07:38:30.237Z,11.05
2022-10-17T07:41:02.583Z,11.10
2022-10-17T07:43:30.451Z,11.15
2022-10-17T07:45:57.596Z,11.19
2022-10-17T07:48:25.104Z,11.22
2022-10-17T07:50:52.070Z,11.32
2022-10-17T07:53:19.248Z,11.42
2022-10-17T07:55:51.434Z,11.50
2022-10-17T07:58:18.581Z,11.54
2022-10-17T08:00:48.515Z,11.57
2022-10-17T08:03:15.385Z,11.58
2022-10-17T08:05:42.419Z,11.59
2022-10-17T08:08:09.065Z,11.60
2022-10-17T08:10:35.775Z,11.59
2022-10-17T08:13:02.828Z,11.61
2022-10-17T08:15:31.845Z,11.71
2022-10-17T08:17:59.640Z,11.79
2022-10-17T08:20:26.745Z,11.88
2022-10-17T08:22:55.243Z,11.94
2022-10-17T08:25:23.065Z,11.99
2022-10-17T08:27:49.898Z,12.05
2022-10-17T08:30:17.235Z,12.13
2022-10-17T08:32:44.093Z,12.17
2022-10-17T08:35:10.935Z,12.23
2022-10-17T08:37:37.926Z,12.26
2022-10-17T08:40:05.068Z,12.26
2022-10-17T08:42:50.396Z,12.20
2022-10-17T08:45:32.613Z,12.10
2022-10-17T08:48:10.102Z,12.01
2022-10-17T08:50:38.470Z,12.01
2022-10-17T08:53:13.802Z,12.05
2022-10-17T08:55:45.637Z,12.16
2022-10-17T08:58:20.067Z,12.28
2022-10-17T09:01:01.185Z,12.46
2022-10-17T09:03:32.317Z,12.55
2022-10-17T09:06:16.344Z,12.58
2022-10-17T09:09:07.123Z,12.78
2022-10-17T09:11:42.821Z,13.01
2022-10-17T09:14:37.271Z,13.06
2022-10-17T09:17:09.960Z,13.10
2022-10-17T09:19:56.303Z,13.16
2022-10-17T09:22:28.697Z,13.23
2022-10-17T09:25:58.141Z,13.30
2022-10-17T09:29:10.750Z,13.41
2022-10-17T09:31:49.641Z,13.46
2022-10-17T09:34:16.816Z,13.48
2022-10-17T09:36:44.132Z,13.57
2022-10-17T09:40:13.921Z,13.57
2022-10-17T09:43:40.441Z,13.66
2022-10-17T09:46:19.979Z,13.69
2022-10-17T09:49:16.516Z,13.70
2022-10-17T09:51:44.750Z,13.79
2022-10-17T09:54:20.580Z,13.84
2022-10-17T09:57:01.734Z,13.91
2022-10-17T09:59:56.177Z,14.11
2022-10-17T10:02:25.170Z,14.27
2022-10-17T10:05:37.391Z,14.19
2022-10-17T10:09:04.064Z,14.32
2022-10-17T10:11:50.016Z,14.38
2022-10-17T10:14:24.314Z,14.49
2022-10-17T10:16:53.769Z,14.36
2022-10-17T10:19:30.060Z,14.41
2022-10-17T10:22:05.275Z,14.67
2022-10-17T10:24:33.155Z,14.51
2022-10-17T10:27:03.155Z,14.62
2022-10-17T10:29:41.792Z,14.56
2022-10-17T10:32:20.432Z,14.53
2022-10-17T10:35:00.730Z,14.59
2022-10-17T10:37:38.743Z,14.73
2022-10-17T10:40:15.800Z,14.66
2022-10-17T10:42:42.686Z,14.77
2022-10-17T10:45:47.995Z,14.88
2022-10-17T10:48:32.605Z,15.13
2022-10-17T10:51:13.269Z,15.08
2022-10-17T10:53:53.461Z,15.11
2022-10-17T10:56:23.166Z,15.22
2022-10-17T10:59:08.398Z,15.19
2022-10-17T11:02:32.984Z,15.39
2022-10-17T11:05:58.471Z,15.39
2022-10-17T11:08:50.648Z,15.54
2022-10-17T11:11:33.621Z,15.59
2022-10-17T11:14:23.203Z,15.82
2022-10-17T11:17:52.608Z,16.14
2022-10-17T11:21:02.106Z,16.57
2022-10-17T11:24:14.401Z,16.60
2022-10-17T11:27:41.235Z,16.68
2022-10-17T11:31:08.108Z,16.78
2022-10-17T11:34:29.852Z,16.57
2022-10-17T11:37:56.287Z,16.08
2022-10-17T11:44:39.130Z,15.43
2022-10-17T11:47:35.135Z,15.20
2022-10-17T11:54:16.920Z,14.92
2022-10-17T11:57:29.531Z,14.87
2022-10-17T12:00:42.752Z,14.87
2022-10-17T12:04:08.408Z,15.03
2022-10-17T12:07:30.563Z,15.17
2022-10-17T12:10:40.320Z,15.35
2022-10-17T12:13:48.934Z,15.33
2022-10-17T14:50:32.167Z,17.78
2022-10-17T14:53:12.270Z,17.55
2022-10-17T14:56:38.894Z,17.31
2022-10-17T15:02:49.735Z,17.35
2022-10-17T15:05:17.081Z,17.44
2022-10-17T15:07:44.088Z,17.40
2022-10-17T15:10:43.294Z,17.33
2022-10-17T15:13:28.529Z,17.26
2022-10-17T15:15:57.070Z,17.06
2022-10-17T15:18:23.877Z,16.84
2022-10-17T15:20:59.475Z,16.67
2022-10-17T15:23:32.449Z,16.60
2022-10-17T15:25:59.128Z,16.55
2022-10-17T15:28:27.392Z,16.58
2022-10-17T15:30:54.338Z,16.56
2022-10-17T15:33:20.962Z,16.49
2022-10-17T15:35:47.979Z,16.38
2022-10-17T15:38:18.446Z,16.28
2022-10-17T15:40:48.910Z,16.21
2022-10-17T15:43:19.647Z,16.13
2022-10-17T15:45:46.955Z,16.08
2022-10-17T15:48:27.778Z,16.08
2022-10-17T15:50:54.591Z,16.09
2022-10-17T15:53:21.346Z,16.05
2022-10-17T15:55:50.966Z,15.94
2022-10-17T15:58:19.695Z,15.85
2022-10-17T16:00:47.125Z,15.75
2022-10-17T16:03:14.394Z,15.68
2022-10-17T16:05:41.296Z,15.61
2022-10-17T16:08:08.100Z,15.55
2022-10-17T16:10:37.286Z,15.51
2022-10-17T16:13:04.113Z,15.45
2022-10-17T16:15:30.899Z,15.42
2022-10-17T16:18:00.524Z,15.37
2022-10-17T16:20:29.667Z,15.37
2022-10-17T16:22:59.992Z,15.33
2022-10-17T16:25:29.013Z,15.31
2022-10-17T16:27:58.351Z,15.28
2022-10-17T16:30:27.524Z,15.24
2022-10-17T16:32:55.584Z,15.21
2022-10-17T16:35:33.290Z,15.17
2022-10-17T16:38:03.641Z,15.16
2022-10-17T16:40:30.447Z,15.12
2022-10-17T16:42:57.150Z,15.06
2022-10-17T16:45:23.897Z,15.01
2022-10-17T16:47:50.867Z,14.97
2022-10-17T16:50:18.646Z,14.93
2022-10-17T16:52:45.628Z,14.87
2022-10-17T16:55:12.413Z,14.81
2022-10-17T16:57:39.138Z,14.73
2022-10-17T17:00:26.529Z,14.65
2022-10-17T17:02:53.643Z,14.57
2022-10-17T17:05:20.268Z,14.50
2022-10-17T17:07:48.222Z,14.42
2022-10-17T17:10:15.031Z,14.34
2022-10-17T17:12:41.663Z,14.29
2022-10-17T17:15:08.763Z,14.24
2022-10-17T17:17:54.873Z,14.17
2022-10-17T17:20:22.281Z,14.13
2022-10-17T17:22:50.937Z,14.08
2022-10-17T17:25:17.677Z,14.01
2022-10-17T17:27:44.628Z,13.97
2022-10-17T17:30:11.795Z,13.92
2022-10-17T17:32:38.529Z,13.85
2022-10-17T17:35:06.125Z,13.80
2022-10-17T17:37:33.063Z,13.76
2022-10-17T17:39:59.948Z,13.71
2022-10-17T17:42:26.938Z,13.66
2022-10-17T17:44:53.623Z,13.61
2022-10-17T17:47:20.539Z,13.55
2022-10-17T17:52:45.704Z,13.46
2022-10-17T17:55:12.870Z,13.44
2022-10-17T17:57:39.539Z,13.39
2022-10-17T18:00:07.218Z,13.34
2022-10-17T18:02:34.026Z,13.29
2022-10-17T18:05:00.703Z,13.26
2022-10-17T18:07:28.090Z,13.23
2022-10-17T18:09:55.744Z,13.19
2022-10-17T18:12:22.921Z,13.14
2022-10-17T18:14:49.912Z,13.11
2022-10-17T18:17:16.606Z,13.07
2022-10-17T18:19:43.306Z,13.04
2022-10-17T18:22:11.023Z,12.99
2022-10-17T18:24:37.701Z,12.94
2022-10-17T18:27:04.543Z,12.90
2022-10-17T18:29:32.928Z,12.87
2022-10-17T18:32:00.101Z,12.84
2022-10-17T18:34:27.377Z,12.80
2022-10-17T18:36:54.827Z,12.76
2022-10-17T18:39:21.687Z,12.73
2022-10-17T18:41:48.327Z,12.69
2022-10-17T18:44:15.988Z,12.66
2022-10-17T18:46:43.138Z,12.63
2022-10-17T18:49:11.768Z,12.60
2022-10-17T18:51:39.015Z,12.56
2022-10-17T18:54:11.343Z,12.54
2022-10-17T18:56:38.285Z,12.50
2022-10-17T18:59:05.769Z,12.47
2022-10-17T19:01:32.483Z,12.44
2022-10-17T19:03:59.702Z,12.39
2022-10-17T19:06:32.188Z,12.38
2022-10-17T19:09:00.793Z,12.36
2022-10-17T19:11:29.038Z,12.34
2022-10-17T19:14:01.060Z,12.32
2022-10-17T19:16:37.297Z,12.26
2022-10-17T19:19:11.530Z,12.20
2022-10-17T19:21:38.373Z,12.18
2022-10-17T19:24:07.353Z,12.16
2022-10-17T19:26:36.135Z,12.13
2022-10-17T19:29:04.325Z,12.07
2022-10-17T19:31:31.851Z,12.04
2022-10-17T19:33:59.633Z,12.03
2022-10-17T19:36:32.277Z,12.00
2022-10-17T19:39:03.736Z,11.98
2022-10-17T19:41:30.958Z,11.95
2022-10-17T19:43:58.372Z,11.90
2022-10-17T19:46:27.220Z,11.90
2022-10-17T19:48:53.952Z,11.87
2022-10-17T19:51:24.588Z,11.84
2022-10-17T19:53:53.535Z,11.82
2022-10-17T19:56:22.483Z,11.79
2022-10-17T19:58:50.309Z,11.76
2022-10-17T20:01:20.334Z,11.75
2022-10-17T20:03:47.600Z,11.73
2022-10-17T20:06:14.776Z,11.69
2022-10-17T20:08:42.114Z,11.66
2022-10-17T20:11:13.394Z,11.62
2022-10-17T20:13:40.841Z,11.57
2022-10-17T20:16:10.972Z,11.50
2022-10-17T20:18:38.363Z,11.41
2022-10-17T20:21:07.957Z,11.37
2022-10-17T20:23:34.857Z,11.35
2022-10-17T20:26:08.129Z,11.31
2022-10-17T20:28:47.286Z,11.25
2022-10-17T20:31:14.930Z,11.20
2022-10-17T20:33:41.844Z,11.21
2022-10-17T20:36:10.752Z,11.18
2022-10-17T20:38:37.761Z,11.14
2022-10-17T20:41:06.840Z,11.12
2022-10-17T20:43:34.747Z,11.13
2022-10-17T20:46:09.809Z,11.11
2022-10-17T20:48:53.455Z,11.11
2022-10-17T20:51:21.137Z,11.10
2022-10-17T20:53:48.469Z,11.07
2022-10-17T20:56:22.515Z,11.03
2022-10-17T20:59:00.418Z,11.04
2022-10-17T21:01:28.430Z,11.05
2022-10-17T21:04:54.953Z,11.05
2022-10-17T21:08:21.622Z,11.07
2022-10-17T21:11:48.121Z,11.03
2022-10-17T21:15:14.947Z,10.94
2022-10-17T21:22:25.957Z,10.77
2022-10-17T21:25:52.379Z,10.70
2022-10-17T21:29:19.256Z,10.66
2022-10-17T21:32:53.227Z,10.59
2022-10-17T21:40:14.394Z,10.48
2022-10-17T21:43:40.849Z,10.41
2022-10-17T21:49:58.950Z,10.39
2022-10-17T21:53:25.506Z,10.38
2022-10-17T21:56:52.095Z,10.34
2022-10-17T22:04:00.444Z,10.22
2022-10-17T22:07:26.987Z,10.15
2022-10-17T22:10:53.962Z,10.08
2022-10-17T22:13:22.580Z,9.99
2022-10-17T22:15:49.287Z,9.97
2022-10-17T22:19:15.991Z,9.91
2022-10-17T22:26:35.525Z,9.81
2022-10-17T22:32:46.948Z,9.63
2022-10-17T22:36:13.395Z,9.59
2022-10-17T22:39:39.971Z,9.56
2022-10-17T22:43:17.537Z,9.54
2022-10-17T22:46:44.235Z,9.58
2022-10-17T22:50:10.608Z,9.64
2022-10-17T22:53:37.191Z,9.57
2022-10-17T22:57:03.628Z,9.49
2022-10-17T23:04:23.978Z,9.46
2022-10-17T23:07:50.387Z,9.55
2022-10-17T23:10:17.228Z,9.62
2022-10-17T23:12:43.957Z,9.65
2022-10-17T23:15:10.756Z,9.65
2022-10-17T23:17:37.618Z,9.61
2022-10-17T23:20:04.581Z,9.58
2022-10-17T23:22:31.502Z,9.54
2022-10-17T23:24:58.676Z,9.51
2022-10-17T23:27:25.360Z,9.51
2022-10-17T23:29:52.037Z,9.48
2022-10-17T23:32:20.894Z,9.48
2022-10-17T23:34:47.633Z,9.46
2022-10-17T23:37:14.238Z,9.45
2022-10-17T23:39:43.564Z,9.43
2022-10-17T23:42:10.209Z,9.41
2022-10-17T23:44:36.890Z,9.40
2022-10-17T23:47:03.732Z,9.40
2022-10-17T23:49:30.443Z,9.36
2022-10-17T23:51:57.096Z,9.32
2022-10-17T23:54:23.960Z,9.26
2022-10-17T23:56:50.630Z,9.18
2022-10-17T23:59:17.373Z,9.17
